Terminal Aerodrome Forecast
Issued by NWS

Current Version | Previous Version | Text Only | Print | Product List | Glossary On
Versions: 1 2 3 4 5 6 7 8 9 10 11 12 13 14 15 16 17 18
903
FTUS43 KMQT 041853 AAA
TAFSAW
TAF AMD
KSAW 041853Z 0419/0518 18009KT 2SM -SN BR OVC015
     FM042100 18006KT 1 1/2SM -SN BR OVC010
     FM050400 20005KT 2SM -SN BR OVC010
     FM050600 22005KT P6SM BKN015
     FM051100 23005KT P6SM SCT020=

USA.gov is the U.S. government's official web portal to all federal, state and local government web resources and services.